CheckWX is a tool to help pilots better visualize weather data.  It is not intended as a substitute for an official pre-flight weather briefing.

00:51:46 UTC

LICT TAF
Vincenzo Florio Trapani-Birgi Airport
Trapani, Italy
TAF LICT 222300Z 2300/2309 13008KT CAVOK BECMG 2307/2309 14015KT

Oct-23@
00:00 UTC

Oct-23 @ 00:00 UTC

Oct-23@
07:00 UTC

Oct-23 @ 07:00 UTC

TAF LICT 222300Z 2300/2309 13008KT CAVOK
Wind
  • 130° at 8 KTS
Conditions
No significant weather
Cloud Levels
  • No significant clouds

Oct-23@
07:00 UTC

Oct-23 @ 07:00 UTC

Oct-23@
09:00 UTC

Oct-23 @ 09:00 UTC

BECMG 2307/2309 14015KT

Becoming

Becoming Conditions expected by Wed, Oct 23, 2019 @ 09:00 UTC

Wind
  • 140° at 15 KTS
Conditions
No significant weather
Cloud Levels
  • No significant clouds